Palmer, Alaska
Current Conditions -  °F | °C
As of 6:53 PM on Sunday 25 Jan 2015 (Local Time) from PAAQ Reporting Station
Clear Clear  
Wind Chill: -13°   Ceiling: Unl
Heat Index: -1°   Visibility: 10mi
Dew Point: -5°   Wind: 6mph
Humidity: 83%   Direction: 360°N
Pressure: 29.9"   Gusts: NA
Location:  61.6°N, 149.11°W
Report Text: PAAQ 260353Z AUTO 36005KT 10SM CLR M18/M21 A2990 RMK AO2 SLP132 I1000 T11831206 TSNO
Loading
Personal Weather Stations






























Interactive Weather Map New forecast layout! Learn more

10-Day Weather Forecast

Advertisements
Track Severe Weather on mobile